Time;durP1;ratioP1;P1;durP2;ratioP2;P2;SDS_P1;SDS_P2;PMS_P1;PMS_P2;Temp;Humidity;BMP_temperature;BMP_pressure;BME280_temperature;BME280_humidity;BME280_pressure;Samples;Min_cycle;Max_cycle;Signal;HPM_P1;HPM_P2
2023/04/02 00:01:38;;;;;;;1.92;1.35;;;;;;;9.96;100.00;98743.53;6296745;28;20128;-75
2023/04/02 00:04:39;;;;;;;2.35;1.42;;;;;;;9.73;100.00;98747.13;6298160;28;20089;-75
2023/04/02 00:07:40;;;;;;;1.90;1.45;;;;;;;9.79;100.00;98749.25;6296691;28;20037;-75
2023/04/02 00:10:50;;;;;;;1.98;1.30;;;;;;;9.84;100.00;98734.06;6297929;28;20045;-75
2023/04/02 00:13:51;;;;;;;1.42;1.23;;;;;;;9.98;100.00;98735.59;6297874;28;20040;-75
2023/04/02 00:16:54;;;;;;;2.15;1.40;;;;;;;10.03;100.00;98741.28;6297002;28;20365;-75
2023/04/02 00:20:05;;;;;;;1.58;1.25;;;;;;;10.06;100.00;98747.06;6296841;28;20045;-75
2023/04/02 00:23:10;;;;;;;2.42;1.60;;;;;;;10.04;100.00;98741.13;6296600;28;20036;-75
2023/04/02 00:26:23;;;;;;;3.47;2.15;;;;;;;10.17;100.00;98737.56;6297742;28;20051;-75
2023/04/02 00:29:24;;;;;;;;;;;;;;;10.24;100.00;98747.38;6297658;28;20041;-75
2023/04/02 00:32:32;;;;;;;2.22;1.60;;;;;;;10.28;100.00;98750.56;6297301;28;20279;-75
2023/04/02 00:35:37;;;;;;;4.20;2.15;;;;;;;10.31;100.00;98752.94;6296493;28;20036;-75
2023/04/02 00:38:42;;;;;;;4.53;2.58;;;;;;;10.34;100.00;98754.50;6296223;28;20472;-75
2023/04/02 00:41:47;;;;;;;6.25;3.13;;;;;;;10.32;100.00;98752.00;6296445;28;20131;-75
2023/04/02 00:44:54;;;;;;;6.75;3.30;;;;;;;10.29;100.00;98744.38;6297815;28;20045;-75
2023/04/02 00:48:12;;;;;;;4.00;2.50;;;;;;;10.27;100.00;98752.34;6296249;28;20503;-75
2023/04/02 00:51:36;;;;;;;2.92;2.10;;;;;;;10.32;100.00;98756.41;6296336;28;20036;-75
2023/04/02 00:55:06;;;;;;;3.65;2.67;;;;;;;10.22;100.00;98767.53;6297665;28;20040;-75
2023/04/02 00:58:24;;;;;;;3.40;2.15;;;;;;;10.03;100.00;98759.53;6288536;28;20060;-75
2023/04/02 01:01:34;;;;;;;2.95;2.10;;;;;;;10.07;100.00;98766.16;6297537;28;20052;-75
2023/04/02 01:04:35;;;;;;;5.65;3.30;;;;;;;9.98;100.00;98765.09;6296222;28;20044;-75
2023/04/02 01:08:01;;;;;;;5.50;3.30;;;;;;;10.07;100.00;98774.78;6297261;28;20040;-75
2023/04/02 01:11:27;;;;;;;4.38;3.13;;;;;;;10.04;100.00;98775.03;6309693;28;20124;-75
2023/04/02 01:14:44;;;;;;;5.82;3.97;;;;;;;10.04;100.00;98782.00;6327293;28;20044;-75
2023/04/02 01:18:00;;;;;;;5.22;3.00;;;;;;;10.05;100.00;98784.50;6327333;28;20048;-75
2023/04/02 01:21:41;;;;;;;3.97;2.88;;;;;;;10.07;100.00;98784.41;6325250;28;20073;-75
2023/04/02 01:24:42;;;;;;;6.10;2.85;;;;;;;10.06;100.00;98786.16;6326375;28;20047;-75
2023/04/02 01:27:56;;;;;;;4.68;2.92;;;;;;;10.08;100.00;98789.47;6326482;28;20036;-75
2023/04/02 01:31:01;;;;;;;6.20;3.08;;;;;;;10.07;100.00;98797.44;6325170;28;20051;-75
2023/04/02 01:34:06;;;;;;;2.85;2.33;;;;;;;9.88;100.00;98795.41;6325080;28;20044;-74
2023/04/02 01:37:10;;;;;;;3.85;2.70;;;;;;;9.85;100.00;98803.47;6326479;28;20036;-75
2023/04/02 01:40:39;;;;;;;7.90;3.08;;;;;;;9.73;100.00;98796.63;6324739;28;20052;-75
2023/04/02 01:43:49;;;;;;;3.38;2.40;;;;;;;9.71;100.00;98788.91;6315769;28;20071;-74
2023/04/02 01:46:51;;;;;;;3.20;2.63;;;;;;;9.71;100.00;98796.72;6324535;28;20109;-74
2023/04/02 01:50:23;;;;;;;5.05;2.95;;;;;;;9.64;100.00;98800.78;6324565;28;20040;-74
2023/04/02 01:53:29;;;;;;;3.58;2.17;;;;;;;9.72;100.00;98798.41;6316503;28;20488;-75
2023/04/02 01:56:30;;;;;;;6.22;3.55;;;;;;;9.76;100.00;98792.00;6325499;28;20502;-75
2023/04/02 01:59:34;;;;;;;5.43;3.43;;;;;;;9.73;100.00;98794.84;6324481;28;20392;-74
2023/04/02 02:02:35;;;;;;;5.85;3.30;;;;;;;9.83;100.00;98793.19;6325264;28;20043;-75
2023/04/02 02:05:36;;;;;;;7.80;4.20;;;;;;;9.76;100.00;98796.38;6324026;28;20036;-75
2023/04/02 02:08:38;;;;;;;6.47;3.60;;;;;;;9.84;100.00;98813.09;6325131;28;20056;-75
2023/04/02 02:11:40;;;;;;;4.88;3.75;;;;;;;9.79;100.00;98810.00;6323930;28;20753;-75
2023/04/02 02:14:49;;;;;;;10.60;4.50;;;;;;;9.84;100.00;98817.44;6325321;28;20044;-75
2023/04/02 02:17:54;;;;;;;5.22;3.80;;;;;;;9.85;100.00;98819.13;6323585;28;20135;-75
2023/04/02 02:20:58;;;;;;;5.88;3.97;;;;;;;9.83;100.00;98819.22;6323332;28;20047;-75
2023/04/02 02:24:01;;;;;;;5.55;3.88;;;;;;;9.87;100.00;98818.03;6322426;28;20044;-75
2023/04/02 02:27:23;;;;;;;5.18;3.70;;;;;;;9.85;100.00;98824.31;6324521;28;20040;-75
2023/04/02 02:30:32;;;;;;;3.92;3.22;;;;;;;9.83;100.00;98824.44;6324496;28;20097;-75
2023/04/02 02:33:39;;;;;;;4.18;2.92;;;;;;;9.85;100.00;98819.13;6323536;28;20464;-78
2023/04/02 02:36:51;;;;;;;3.33;2.05;;;;;;;9.88;100.00;98821.47;6323814;28;20044;-78
2023/04/02 02:39:55;;;;;;;2.17;1.77;;;;;;;9.91;100.00;98823.03;6323318;28;20090;-78
2023/04/02 02:43:02;;;;;;;1.77;1.58;;;;;;;9.95;100.00;98824.44;6323318;28;20044;-77
2023/04/02 02:46:05;;;;;;;1.63;1.30;;;;;;;10.03;100.00;98827.28;6323388;28;20043;-78
2023/04/02 02:49:08;;;;;;;2.15;1.70;;;;;;;10.04;100.00;98829.75;6323044;28;20044;-77
2023/04/02 02:52:15;;;;;;;1.50;1.13;;;;;;;10.04;100.00;98834.13;6324039;28;20071;-77
2023/04/02 02:55:20;;;;;;;2.63;1.55;;;;;;;10.02;100.00;98843.84;6323047;28;20098;-77
2023/04/02 02:58:30;;;;;;;3.47;1.77;;;;;;;10.07;100.00;98839.94;6324276;28;20452;-78
2023/04/02 03:01:34;;;;;;;2.70;1.60;;;;;;;10.08;100.00;98849.41;6324194;28;20044;-78
2023/04/02 03:04:35;;;;;;;4.80;2.00;;;;;;;10.11;100.00;98848.38;6323232;28;20082;-78
2023/04/02 03:07:37;;;;;;;2.38;2.00;;;;;;;10.13;100.00;98846.47;6324169;28;20071;-78
2023/04/02 03:11:02;;;;;;;4.13;2.05;;;;;;;10.16;100.00;98861.84;6324125;28;20052;-78
2023/04/02 03:14:19;;;;;;;2.97;2.20;;;;;;;10.14;100.00;98853.31;6323963;28;20040;-78
2023/04/02 03:17:34;;;;;;;2.50;1.83;;;;;;;10.14;100.00;98865.53;6322528;28;20059;-78
2023/04/02 03:20:38;;;;;;;1.73;1.58;;;;;;;10.10;100.00;98880.56;6323878;28;20040;-78
2023/04/02 03:23:45;;;;;;;2.70;1.95;;;;;;;10.18;100.00;98886.03;6323827;28;20064;-78
2023/04/02 03:27:07;;;;;;;2.08;1.65;;;;;;;10.22;100.00;98886.63;6322498;28;20380;-79
2023/04/02 03:30:16;;;;;;;2.22;1.73;;;;;;;10.25;100.00;98883.75;6323538;28;20123;-78
2023/04/02 03:33:32;;;;;;;2.53;1.50;;;;;;;10.19;100.00;98894.66;6322903;28;20051;-78
2023/04/02 03:37:06;;;;;;;2.92;2.03;;;;;;;10.14;100.00;98889.81;6322365;28;20039;-78
2023/04/02 03:40:23;;;;;;;2.38;1.67;;;;;;;10.24;100.00;98902.97;6322967;28;20060;-78
2023/04/02 03:43:28;;;;;;;3.00;1.90;;;;;;;10.14;100.00;98907.25;6321974;28;20071;-78
2023/04/02 03:46:47;;;;;;;1.83;1.52;;;;;;;10.12;100.00;98901.31;6323277;28;20040;-78
2023/04/02 03:50:00;;;;;;;1.85;1.48;;;;;;;10.24;100.00;98908.19;6322847;28;20058;-78
2023/04/02 03:53:03;;;;;;;2.08;1.63;;;;;;;10.10;100.00;98898.81;6321679;28;20407;-78
2023/04/02 03:56:05;;;;;;;5.03;2.88;;;;;;;10.08;100.00;98911.13;6321694;28;20048;-78
2023/04/02 03:59:17;;;;;;;2.58;1.73;;;;;;;9.91;100.00;98924.66;6322934;28;20131;-78
2023/04/02 04:02:41;;;;;;;2.13;1.55;;;;;;;9.96;100.00;98925.09;6321790;28;20059;-77
2023/04/02 04:06:07;;;;;;;2.22;1.90;;;;;;;10.00;100.00;98924.75;6322668;28;20377;-77
2023/04/02 04:09:36;;;;;;;2.55;1.88;;;;;;;10.17;100.00;98928.69;6319950;28;20059;-77
2023/04/02 04:12:45;;;;;;;2.22;1.92;;;;;;;10.13;100.00;98934.22;6321016;28;20087;-77
2023/04/02 04:15:58;;;;;;;3.17;2.17;;;;;;;10.14;100.00;98923.69;6321647;28;20050;-78
2023/04/02 04:19:11;;;;;;;3.83;2.28;;;;;;;10.09;100.00;98931.88;6321458;28;20047;-78
2023/04/02 04:22:28;;;;;;;;;;;;;;;10.03;100.00;98944.56;6322689;28;20048;-77
2023/04/02 04:25:32;;;;;;;2.42;1.90;;;;;;;10.07;100.00;98941.59;6322367;28;19931;-77
2023/04/02 04:28:47;;;;;;;2.90;1.40;;;;;;;10.12;100.00;98945.63;6321049;28;20044;-78
2023/04/02 04:31:54;;;;;;;3.30;1.52;;;;;;;10.15;100.00;98947.97;6321127;28;20043;-77
2023/04/02 04:35:01;;;;;;;2.30;1.60;;;;;;;10.02;100.00;98954.13;6322415;28;20138;-77
2023/04/02 04:38:13;;;;;;;1.83;0.98;;;;;;;9.98;100.00;98949.28;6320994;28;20043;-77
2023/04/02 04:41:23;;;;;;;2.55;1.45;;;;;;;9.98;100.00;98951.88;6322231;28;20480;-77
2023/04/02 04:44:44;;;;;;;1.42;0.98;;;;;;;9.82;100.00;98944.38;6322181;28;20047;-77
2023/04/02 04:47:55;;;;;;;1.50;1.20;;;;;;;9.85;100.00;98957.19;6326237;28;20472;-77
2023/04/02 04:51:15;;;;;;;2.85;0.88;;;;;;;9.79;100.00;98952.44;6327208;28;20040;-77
2023/04/02 04:54:17;;;;;;;1.63;1.00;;;;;;;9.88;100.00;98955.19;6327153;28;20067;-77
2023/04/02 04:57:41;;;;;;;1.27;1.10;;;;;;;9.99;100.00;98967.41;6327123;28;20104;-77
2023/04/02 05:01:12;;;;;;;2.08;1.58;;;;;;;10.04;100.00;98967.88;6324091;28;20071;-78
2023/04/02 05:04:21;;;;;;;2.60;1.33;;;;;;;10.06;100.00;98965.97;6337107;27;20044;-77
2023/04/02 05:07:42;;;;;;;5.28;2.60;;;;;;;10.07;100.00;98967.66;6323938;28;20526;-77
2023/04/02 05:10:49;;;;;;;3.08;1.63;;;;;;;10.04;100.00;98975.69;6317542;28;20051;-74
2023/04/02 05:13:58;;;;;;;2.42;1.70;;;;;;;10.00;100.00;98970.84;6318090;28;20052;-75
2023/04/02 05:17:06;;;;;;;2.85;1.80;;;;;;;10.04;100.00;98967.06;6325202;28;20040;-77
2023/04/02 05:20:19;;;;;;;1.98;1.70;;;;;;;10.10;100.00;98974.41;6326608;28;20126;-78
2023/04/02 05:23:29;;;;;;;3.50;1.92;;;;;;;10.09;100.00;98976.19;6325497;28;20040;-78
2023/04/02 05:26:44;;;;;;;1.33;1.20;;;;;;;10.12;100.00;98975.13;6323366;28;20505;-78
2023/04/02 05:29:52;;;;;;;1.85;1.20;;;;;;;10.18;100.00;98987.69;6325160;28;20051;-77
2023/04/02 05:33:14;;;;;;;3.72;2.00;;;;;;;10.28;100.00;98985.22;6326341;28;20126;-77
2023/04/02 05:36:23;;;;;;;2.40;1.70;;;;;;;10.30;100.00;98985.94;6324977;28;20040;-75
2023/04/02 05:39:26;;;;;;;2.13;1.25;;;;;;;10.35;100.00;98993.41;6324532;28;20059;-74
2023/04/02 05:42:30;;;;;;;2.30;1.40;;;;;;;10.36;100.00;98998.53;6326007;28;20383;-74
2023/04/02 05:45:36;;;;;;;4.15;1.98;;;;;;;10.40;100.00;99001.72;6302339;28;20052;-75
2023/04/02 05:48:42;;;;;;;2.03;1.38;;;;;;;10.50;100.00;99002.69;6300557;28;20040;-75
2023/04/02 05:51:49;;;;;;;4.97;2.67;;;;;;;10.61;100.00;99001.84;6321019;28;20407;-75
2023/04/02 05:55:19;;;;;;;6.53;2.60;;;;;;;10.65;100.00;99014.53;6308576;28;20044;-75
2023/04/02 05:58:56;;;;;;;1.80;1.10;;;;;;;10.69;100.00;99015.94;6294675;28;20056;-74
2023/04/02 06:02:04;;;;;;;2.33;1.50;;;;;;;10.71;100.00;99012.38;6306908;28;20070;-75
2023/04/02 06:05:12;;;;;;;1.55;1.35;;;;;;;10.78;100.00;99017.00;6323593;28;20047;-77
2023/04/02 06:08:35;;;;;;;1.73;1.10;;;;;;;10.69;100.00;99020.34;6324184;28;20047;-77
2023/04/02 06:11:41;;;;;;;2.53;1.30;;;;;;;10.65;100.00;99014.53;6325357;28;20044;-78
2023/04/02 06:14:41;;;;;;;2.35;0.85;;;;;;;10.71;100.00;99028.88;6324011;28;20541;-78
2023/04/02 06:17:58;;;;;;;2.67;0.82;;;;;;;10.80;100.00;99022.09;6323908;28;20044;-77
2023/04/02 06:21:03;;;;;;;1.58;1.13;;;;;;;10.89;100.00;99023.97;6323895;28;20051;-78
2023/04/02 06:24:06;;;;;;;1.30;1.08;;;;;;;10.84;100.00;99024.34;6323929;28;20048;-78
2023/04/02 06:27:13;;;;;;;3.17;1.40;;;;;;;10.84;100.00;99023.50;6323303;28;20056;-78
2023/04/02 06:30:23;;;;;;;2.33;1.40;;;;;;;10.86;100.00;99035.50;6323654;28;20040;-78
2023/04/02 06:33:24;;;;;;;1.95;1.70;;;;;;;10.82;100.00;99034.06;6323587;28;20044;-77
2023/04/02 06:36:27;;;;;;;2.63;1.95;;;;;;;10.94;100.00;99037.50;6324860;28;20047;-77
2023/04/02 06:39:28;;;;;;;3.42;1.95;;;;;;;10.97;100.00;99037.25;6324687;28;20127;-78
2023/04/02 06:42:38;;;;;;;3.60;1.90;;;;;;;11.01;100.00;99045.69;6324851;28;20044;-77
2023/04/02 06:45:42;;;;;;;3.38;1.90;;;;;;;10.98;100.00;99041.53;6322581;28;20404;-77
2023/04/02 06:48:45;;;;;;;3.08;2.30;;;;;;;11.01;100.00;99040.44;6323147;28;20480;-77
2023/04/02 06:51:49;;;;;;;3.92;2.47;;;;;;;11.07;100.00;99045.19;6322167;28;20040;-77
2023/04/02 06:54:50;;;;;;;8.52;4.38;;;;;;;11.19;100.00;99052.06;6304699;28;20400;-75
2023/04/02 06:57:51;;;;;;;14.65;6.55;;;;;;;11.20;100.00;99061.56;6299699;28;20043;-75
2023/04/02 07:00:52;;;;;;;37.65;13.18;;;;;;;11.27;100.00;99054.88;6318039;28;20040;-75
2023/04/02 07:03:56;;;;;;;45.70;15.13;;;;;;;11.41;100.00;99063.41;6314826;28;20040;-75
2023/04/02 07:06:57;;;;;;;65.18;20.95;;;;;;;11.42;100.00;99063.25;6330384;28;20063;-75
2023/04/02 07:10:00;;;;;;;69.85;17.40;;;;;;;11.50;100.00;99067.88;6304118;28;20484;-74
2023/04/02 07:13:04;;;;;;;26.27;7.18;;;;;;;11.58;100.00;99062.03;6322929;28;20048;-74
2023/04/02 07:16:12;;;;;;;11.13;5.68;;;;;;;11.62;100.00;99069.50;6322841;28;20036;-75
2023/04/02 07:19:19;;;;;;;11.10;5.63;;;;;;;11.78;100.00;99074.31;6314290;28;20045;-74
2023/04/02 07:22:20;;;;;;;4.80;2.97;;;;;;;11.67;100.00;99079.56;6305916;28;20491;-74
2023/04/02 07:25:23;;;;;;;4.00;1.98;;;;;;;11.89;100.00;99086.53;6319504;28;20047;-75
2023/04/02 07:28:24;;;;;;;3.35;2.55;;;;;;;12.02;100.00;99081.94;6316265;28;20032;-74
2023/04/02 07:31:27;;;;;;;2.72;1.83;;;;;;;12.13;100.00;99088.06;6315589;28;20036;-75
2023/04/02 07:34:28;;;;;;;2.47;2.00;;;;;;;12.22;100.00;99098.63;6317091;28;20043;-75
2023/04/02 07:37:30;;;;;;;3.15;2.40;;;;;;;12.33;100.00;99100.31;6306674;28;20039;-74
2023/04/02 07:40:33;;;;;;;2.63;2.00;;;;;;;12.15;100.00;99096.63;6305202;28;20061;-74
2023/04/02 07:43:34;;;;;;;3.65;1.83;;;;;;;12.48;100.00;99101.69;6315971;28;20048;-74
2023/04/02 07:46:36;;;;;;;4.55;2.58;;;;;;;12.64;100.00;99109.06;6307757;28;20382;-74
2023/04/02 07:49:36;;;;;;;3.20;2.60;;;;;;;12.78;100.00;99117.53;6312681;28;20044;-74
2023/04/02 07:52:42;;;;;;;4.90;2.30;;;;;;;13.01;100.00;99116.41;6321881;28;20051;-74
2023/04/02 07:55:43;;;;;;;4.57;2.50;;;;;;;13.03;100.00;99113.63;6301795;28;20049;-74
2023/04/02 07:58:47;;;;;;;3.40;2.13;;;;;;;13.10;100.00;99128.69;6295606;28;20045;-74
2023/04/02 08:01:48;;;;;;;2.60;2.00;;;;;;;13.30;100.00;99127.00;6295341;28;20041;-74
2023/04/02 08:04:50;;;;;;;3.03;2.03;;;;;;;13.37;100.00;99132.53;6296034;28;20032;-74
2023/04/02 08:07:53;;;;;;;3.30;1.92;;;;;;;13.26;90.47;99133.44;6296658;28;20045;-74
2023/04/02 08:10:54;;;;;;;2.10;1.67;;;;;;;13.13;91.49;99130.22;6301705;28;20043;-74
2023/04/02 08:13:55;;;;;;;2.58;1.85;;;;;;;12.79;95.93;99140.16;6320482;28;20092;-75
2023/04/02 08:16:56;;;;;;;3.92;2.03;;;;;;;13.13;97.04;99138.06;6320473;28;20044;-74
2023/04/02 08:20:00;;;;;;;3.35;2.08;;;;;;;13.25;97.00;99138.81;6316664;28;20404;-74
2023/04/02 08:23:02;;;;;;;3.25;2.08;;;;;;;13.30;92.09;99139.25;6295254;28;20045;-74
2023/04/02 08:26:04;;;;;;;9.52;5.88;;;;;;;13.42;90.05;99147.84;6316374;28;20166;-74
2023/04/02 08:29:05;;;;;;;5.07;2.72;;;;;;;13.38;93.67;99141.22;6321332;28;20126;-74
2023/04/02 08:32:06;;;;;;;2.60;2.13;;;;;;;13.29;95.14;99143.66;6320015;28;20040;-74
2023/04/02 08:35:09;;;;;;;2.97;2.30;;;;;;;13.54;92.35;99154.63;6320075;28;20050;-74
2023/04/02 08:38:14;;;;;;;4.03;2.25;;;;;;;13.25;90.59;99147.50;6319943;28;20094;-75
2023/04/02 08:41:26;;;;;;;3.20;2.10;;;;;;;13.33;94.25;99140.81;6319895;28;20044;-74
2023/04/02 08:44:52;;;;;;;3.97;2.30;;;;;;;13.59;91.93;99144.59;6320126;28;20071;-74
2023/04/02 08:47:58;;;;;;;3.83;2.47;;;;;;;13.56;91.08;99151.88;6312417;28;20060;-74
2023/04/02 08:51:03;;;;;;;4.05;2.55;;;;;;;13.83;92.17;99152.06;6310596;28;20422;-74
2023/04/02 08:54:21;;;;;;;4.47;2.88;;;;;;;13.98;88.92;99159.53;6320120;28;20083;-74
2023/04/02 08:57:35;;;;;;;4.50;2.50;;;;;;;14.38;87.61;99155.94;6317344;28;20037;-74
2023/04/02 09:00:46;;;;;;;4.00;2.65;;;;;;;14.17;84.44;99156.09;6312282;28;20063;-78
2023/04/02 09:03:52;;;;;;;5.28;3.35;;;;;;;14.11;86.39;99158.28;6307468;28;20056;-78
2023/04/02 09:06:56;;;;;;;5.78;3.65;;;;;;;13.90;86.26;99165.47;6296104;28;20136;-78
2023/04/02 09:09:57;;;;;;;3.40;2.75;;;;;;;13.70;85.82;99154.13;6294577;28;20443;-77
2023/04/02 09:12:59;;;;;;;7.45;2.88;;;;;;;14.13;84.82;99162.59;6295983;28;20086;-77
2023/04/02 09:16:15;;;;;;;5.75;2.90;;;;;;;14.15;87.50;99161.47;6301151;28;20502;-77
2023/04/02 09:19:32;;;;;;;5.07;2.80;;;;;;;14.10;87.37;99161.91;6303209;28;20386;-77
2023/04/02 09:22:37;;;;;;;5.90;2.88;;;;;;;14.46;87.29;99164.78;6296231;28;20040;-77
2023/04/02 09:25:43;;;;;;;3.97;2.47;;;;;;;15.19;83.62;99168.63;6301272;28;20492;-78
2023/04/02 09:28:44;;;;;;;3.75;2.47;;;;;;;15.36;82.31;99159.97;6295598;28;20049;-78
2023/04/02 09:32:11;;;;;;;4.40;2.30;;;;;;;15.54;78.45;99167.06;6296124;28;20052;-78
2023/04/02 09:35:15;;;;;;;3.30;2.50;;;;;;;15.74;77.62;99160.75;6298889;28;20537;-79
2023/04/02 09:38:21;;;;;;;4.80;2.40;;;;;;;15.40;73.83;99163.13;6317238;28;20071;-79
2023/04/02 09:41:27;;;;;;;3.10;2.00;;;;;;;15.47;79.20;99161.56;6303169;28;20048;-78
2023/04/02 09:44:30;;;;;;;2.58;1.85;;;;;;;16.04;70.68;99167.47;6319127;28;20040;-78
2023/04/02 09:47:31;;;;;;;3.85;2.13;;;;;;;16.23;73.05;99165.66;6323830;28;20046;-78
2023/04/02 09:50:33;;;;;;;2.90;1.92;;;;;;;15.89;70.76;99156.63;6324971;28;20040;-77
2023/04/02 09:53:45;;;;;;;2.47;1.67;;;;;;;15.94;70.83;99171.97;6303877;28;20477;-77
2023/04/02 09:57:01;;;;;;;2.78;1.75;;;;;;;16.28;67.62;99166.84;6298577;28;20040;-78
2023/04/02 10:00:25;;;;;;;2.47;1.58;;;;;;;17.08;62.86;99172.03;6299595;28;20511;-78
2023/04/02 10:03:30;;;;;;;2.30;1.67;;;;;;;17.45;59.21;99162.16;6299531;28;20412;-78
2023/04/02 10:06:33;;;;;;;3.00;1.75;;;;;;;17.55;60.09;99173.38;6313108;28;20036;-78
2023/04/02 10:09:37;;;;;;;2.72;1.88;;;;;;;16.91;60.21;99159.75;6324354;28;20036;-78
2023/04/02 10:12:42;;;;;;;1.95;1.42;;;;;;;16.81;63.76;99166.94;6324313;28;20158;-78
2023/04/02 10:15:47;;;;;;;3.05;1.80;;;;;;;16.91;65.50;99168.47;6324492;28;20072;-78
2023/04/02 10:18:50;;;;;;;2.50;1.70;;;;;;;16.43;61.53;99174.19;6324274;28;20040;-77
2023/04/02 10:21:56;;;;;;;2.92;1.85;;;;;;;15.93;64.82;99172.13;6322955;28;20119;-77
2023/04/02 10:24:58;;;;;;;3.20;2.10;;;;;;;15.41;74.93;99178.75;6318427;28;20502;-77
2023/04/02 10:28:16;;;;;;;4.15;2.47;;;;;;;14.96;90.62;99182.09;6323071;28;20044;-78
2023/04/02 10:31:33;;;;;;;3.45;2.15;;;;;;;15.27;86.82;99174.78;6311988;28;20037;-80
2023/04/02 10:34:51;;;;;;;4.78;2.88;;;;;;;15.65;85.20;99178.22;6297763;28;20110;-80
2023/04/02 10:38:16;;;;;;;2.60;2.03;;;;;;;16.21;85.92;99186.03;6297593;28;20036;-79
2023/04/02 10:41:51;;;;;;;2.75;1.80;;;;;;;16.01;85.45;99175.66;6298621;28;20100;-80
2023/04/02 10:45:30;;;;;;;3.08;2.00;;;;;;;16.22;85.15;99183.25;6304243;28;20509;-79
2023/04/02 10:48:45;;;;;;;3.05;1.85;;;;;;;16.20;76.69;99177.28;6322323;28;20111;-79
2023/04/02 10:51:58;;;;;;;1.95;1.33;;;;;;;16.58;74.34;99179.75;6320097;28;20123;-79
2023/04/02 10:55:15;;;;;;;1.88;1.50;;;;;;;17.05;72.18;99180.25;6306676;28;20041;-79
2023/04/02 10:58:25;;;;;;;1.90;1.30;;;;;;;17.35;70.99;99179.91;6313408;28;20040;-79
2023/04/02 11:01:31;;;;;;;1.67;1.40;;;;;;;16.97;67.18;99174.94;6316977;28;20066;-79
2023/04/02 11:04:42;;;;;;;3.10;1.50;;;;;;;16.66;66.89;99182.47;6300577;28;20455;-79
2023/04/02 11:07:59;;;;;;;2.75;1.45;;;;;;;16.45;68.67;99178.34;6307423;28;20036;-78
2023/04/02 11:11:06;;;;;;;2.08;1.00;;;;;;;15.95;65.08;99175.44;6314574;28;20045;-78
2023/04/02 11:14:20;;;;;;;1.60;1.17;;;;;;;15.95;65.89;99173.63;6322942;28;20120;-78
2023/04/02 11:17:23;;;;;;;1.75;1.33;;;;;;;16.18;64.56;99175.81;6322895;28;20123;-78
2023/04/02 11:21:01;;;;;;;1.77;0.98;;;;;;;16.00;65.48;99174.00;6321565;28;20173;-78
2023/04/02 11:24:02;;;;;;;1.98;1.20;;;;;;;16.13;66.75;99173.63;6321362;28;20087;-78
2023/04/02 11:27:27;;;;;;;1.27;1.17;;;;;;;16.39;63.50;99173.69;6321469;28;20483;-78
2023/04/02 11:30:29;;;;;;;2.50;1.17;;;;;;;16.10;62.08;99177.41;6321323;28;20044;-78
2023/04/02 11:33:30;;;;;;;1.40;0.90;;;;;;;16.11;62.21;99171.13;6321267;28;20441;-78
2023/04/02 11:36:51;;;;;;;1.35;0.70;;;;;;;16.21;60.00;99173.69;6322364;28;20036;-78
2023/04/02 11:39:55;;;;;;;1.17;0.70;;;;;;;16.69;56.97;99168.97;6316932;28;20059;-78
2023/04/02 11:43:34;;;;;;;2.83;1.20;;;;;;;16.97;56.27;99169.66;6320769;28;20040;-78
2023/04/02 11:46:39;;;;;;;0.88;0.82;;;;;;;16.67;59.23;99171.75;6306941;28;20040;-78
2023/04/02 11:50:00;;;;;;;0.55;0.55;;;;;;;16.64;57.46;99179.97;6314046;28;20044;-78
2023/04/02 11:53:24;;;;;;;2.25;0.80;;;;;;;16.35;57.15;99174.13;6317656;28;20434;-78
2023/04/02 11:56:44;;;;;;;0.93;0.88;;;;;;;16.19;60.19;99180.91;6311517;28;20079;-77
2023/04/02 12:00:19;;;;;;;1.13;0.68;;;;;;;15.83;59.31;99175.63;6316091;28;20048;-77
2023/04/02 12:03:24;;;;;;;0.80;0.60;;;;;;;15.80;58.85;99175.94;6322043;28;20377;-77
2023/04/02 12:06:46;;;;;;;1.00;0.90;;;;;;;15.81;59.66;99169.69;6318665;28;20441;-77
2023/04/02 12:09:46;;;;;;;2.73;1.00;;;;;;;16.05;62.41;99170.91;6312382;28;20103;-77
2023/04/02 12:12:48;;;;;;;1.50;1.10;;;;;;;15.99;57.65;99163.63;6301600;28;20044;-77
2023/04/02 12:15:51;;;;;;;1.13;0.82;;;;;;;15.85;57.87;99164.97;6295433;28;20047;-77
2023/04/02 12:18:55;;;;;;;1.25;0.70;;;;;;;16.13;59.10;99159.66;6307015;28;20052;-77
2023/04/02 12:21:58;;;;;;;1.70;0.73;;;;;;;15.86;60.49;99156.94;6295333;28;20051;-77
2023/04/02 12:25:03;;;;;;;2.55;1.20;;;;;;;16.06;60.58;99162.03;6308325;28;20044;-77
2023/04/02 12:28:09;;;;;;;2.05;1.38;;;;;;;16.92;61.97;99158.75;6320100;28;20479;-77
2023/04/02 12:31:18;;;;;;;0.93;0.82;;;;;;;17.24;59.45;99146.75;6321634;28;20092;-77
2023/04/02 12:34:21;;;;;;;2.75;1.00;;;;;;;17.46;57.76;99147.97;6320286;28;20036;-77
2023/04/02 12:37:25;;;;;;;2.40;1.63;;;;;;;16.77;56.25;99150.56;6300771;28;20124;-77
2023/04/02 12:40:27;;;;;;;13.68;5.20;;;;;;;16.66;55.91;99153.47;6331325;28;20059;-77
2023/04/02 12:43:33;;;;;;;4.00;2.27;;;;;;;16.80;54.38;99154.69;6300254;28;20036;-77
2023/04/02 12:46:44;;;;;;;8.25;4.80;;;;;;;17.10;54.65;99154.25;6312452;28;20059;-77
2023/04/02 12:49:46;;;;;;;1.88;1.25;;;;;;;16.93;54.24;99152.53;6319232;28;20040;-77
2023/04/02 12:52:52;;;;;;;;;;;;;;;16.65;55.56;99152.63;6321506;28;20043;-77
2023/04/02 12:55:58;;;;;;;1.73;1.00;;;;;;;16.49;55.50;99157.78;6320972;28;19928;-77
2023/04/02 12:59:00;;;;;;;3.08;1.10;;;;;;;16.34;58.97;99157.50;6319784;28;20553;-77
2023/04/02 13:02:16;;;;;;;1.30;0.90;;;;;;;16.28;57.07;99153.69;6319674;28;20555;-77
2023/04/02 13:05:44;;;;;;;1.17;0.77;;;;;;;16.28;56.13;99147.59;6319626;28;20043;-77
2023/04/02 13:08:45;;;;;;;1.15;0.85;;;;;;;17.11;57.61;99145.38;6325823;28;20070;-77
2023/04/02 13:11:46;;;;;;;0.95;0.63;;;;;;;16.62;54.81;99150.31;6325719;28;20036;-77
2023/04/02 13:14:54;;;;;;;2.40;1.10;;;;;;;16.29;56.12;99149.25;6325837;28;20047;-77
2023/04/02 13:18:04;;;;;;;1.38;0.90;;;;;;;16.79;57.24;99145.97;6325782;28;20047;-76
2023/04/02 13:21:26;;;;;;;1.23;0.88;;;;;;;16.82;55.44;99147.50;6325429;28;20501;-76
2023/04/02 13:24:30;;;;;;;1.52;0.93;;;;;;;16.78;57.23;99146.97;6307570;28;20059;-76
2023/04/02 13:27:30;;;;;;;1.33;0.82;;;;;;;16.66;57.11;99145.59;6309775;28;20040;-76
2023/04/02 13:30:31;;;;;;;0.98;0.88;;;;;;;16.46;57.74;99150.22;6319014;28;20501;-76
2023/04/02 13:33:32;;;;;;;2.35;0.75;;;;;;;16.84;57.90;99138.47;6313737;28;20403;-76
2023/04/02 13:36:33;;;;;;;1.10;0.80;;;;;;;16.25;55.46;99146.09;6321545;28;20403;-76
2023/04/02 13:39:34;;;;;;;0.93;0.77;;;;;;;16.30;56.41;99135.09;6307630;28;20056;-76
2023/04/02 13:42:35;;;;;;;1.52;1.20;;;;;;;16.13;56.50;99144.69;6317437;28;20097;-76
2023/04/02 13:45:40;;;;;;;1.60;1.15;;;;;;;16.37;57.48;99140.59;6325036;28;20048;-76
2023/04/02 13:48:44;;;;;;;6.35;2.75;;;;;;;15.92;56.60;99142.34;6325110;28;20120;-76
2023/04/02 13:51:48;;;;;;;3.30;2.15;;;;;;;16.10;58.00;99144.97;6323826;28;20046;-76
2023/04/02 13:54:53;;;;;;;3.13;1.63;;;;;;;16.00;57.79;99147.69;6323663;28;20046;-76
2023/04/02 13:57:55;;;;;;;1.35;1.00;;;;;;;16.08;58.40;99136.41;6324853;28;20399;-76
2023/04/02 14:00:56;;;;;;;2.97;1.55;;;;;;;16.58;57.49;99137.63;6318139;28;20044;-76
2023/04/02 14:03:58;;;;;;;3.07;1.43;;;;;;;17.02;55.01;99148.94;6305254;28;20076;-76
2023/04/02 14:07:04;;;;;;;1.48;1.30;;;;;;;17.46;53.98;99146.16;6308401;28;20041;-76
2023/04/02 14:10:43;;;;;;;2.08;1.58;;;;;;;17.60;54.09;99152.63;6298259;28;20111;-76
2023/04/02 14:14:20;;;;;;;1.52;1.02;;;;;;;16.77;63.70;99144.50;6299630;28;20060;-76
2023/04/02 14:17:36;;;;;;;2.75;1.88;;;;;;;15.84;66.72;99161.50;6310029;28;20396;-76
2023/04/02 14:20:39;;;;;;;1.75;1.30;;;;;;;15.24;72.46;99156.72;6298112;28;20130;-76
2023/04/02 14:23:50;;;;;;;26.33;15.02;;;;;;;15.13;80.85;99171.81;6300742;28;20127;-76
2023/04/02 14:27:36;;;;;;;11.70;7.45;;;;;;;14.76;86.87;99181.31;6314129;28;20044;-76
2023/04/02 14:31:01;;;;;;;4.53;2.00;;;;;;;14.63;85.66;99178.19;6303960;28;20074;-76
2023/04/02 14:34:24;;;;;;;5.50;3.05;;;;;;;14.52;84.30;99190.47;6304469;28;20549;-76
2023/04/02 14:37:33;;;;;;;5.35;2.78;;;;;;;14.35;90.01;99182.44;6311289;28;20046;-76
2023/04/02 14:40:34;;;;;;;3.25;2.10;;;;;;;14.25;91.05;99182.47;6319531;28;20496;-76
2023/04/02 14:43:49;;;;;;;5.25;2.53;;;;;;;14.35;91.94;99185.94;6304956;28;20044;-76
2023/04/02 14:46:58;;;;;;;2.38;1.42;;;;;;;14.29;91.91;99191.72;6305488;28;20040;-76